Terminal Aerodrome Forecast
Issued by NWS St Louis, MO

Home | Current Version | Previous Version | Graphics & Text | Print | Product List | Glossary On
Versions: 1 2 3 4 5 6 7 8 9 10 11 12 13 14 15 16 17 18 19 20 21 22 23 24 25 26 27 28 29 30
000
FTUS43 KLSX 241700
TAFSTL
TAF
KSTL 241739Z 2418/2524 26011KT P6SM SKC
     FM250200 22006KT P6SM BKN150
     FM250900 24009KT P6SM -RA OVC035
     FM251100 27013KT 4SM -RA BR OVC012
     FM251700 28012KT P6SM VCSH OVC012=

USA.gov is the U.S. government's official web portal to all federal, state and local government web resources and services.